Time;durP1;ratioP1;P1;durP2;ratioP2;P2;SDS_P1;SDS_P2;PMS_P1;PMS_P2;Temp;Humidity;BMP_temperature;BMP_pressure;BME280_temperature;BME280_humidity;BME280_pressure;Samples;Min_cycle;Max_cycle;Signal;HPM_P1;HPM_P2
2022/12/24 00:02:23;;;;;;;45.80;17.90;;;;;;;-128.00;-1.00;-1.00;100834;1306;1003545;-32
2022/12/24 00:04:49;;;;;;;32.20;17.10;;;;;;;-128.00;-1.00;-1.00;100846;1282;1004440;-36
2022/12/24 00:07:15;;;;;;;57.00;25.90;;;;;;;-128.00;-1.00;-1.00;100827;1305;1004500;-36
2022/12/24 00:09:41;;;;;;;41.40;17.90;;;;;;;-128.00;-1.00;-1.00;100847;1305;1004540;-35
2022/12/24 00:12:07;;;;;;;25.00;13.70;;;;;;;-128.00;-1.00;-1.00;100903;1305;1004435;-33
2022/12/24 00:14:32;;;;;;;48.10;19.20;;;;;;;-128.00;-1.00;-1.00;100900;1306;1004640;-35
2022/12/24 00:16:58;;;;;;;36.10;17.80;;;;;;;-128.00;-1.00;-1.00;100871;1306;1004504;-36
2022/12/24 00:19:24;;;;;;;31.70;14.40;;;;;;;-128.00;-1.00;-1.00;100858;1306;1004258;-32
2022/12/24 00:21:50;;;;;;;45.10;20.10;;;;;;;-128.00;-1.00;-1.00;100508;1306;1004635;-33
2022/12/24 00:24:16;;;;;;;42.90;19.60;;;;;;;-128.00;-1.00;-1.00;100847;1306;1004618;-32
2022/12/24 00:26:41;;;;;;;37.30;15.20;;;;;;;-128.00;-1.00;-1.00;100852;1305;1005065;-32
2022/12/24 00:29:08;;;;;;;31.70;15.90;;;;;;;-128.00;-1.00;-1.00;100875;1306;1004629;-36
2022/12/24 00:31:33;;;;;;;31.20;16.40;;;;;;;-128.00;-1.00;-1.00;100862;1306;1004804;-38
2022/12/24 00:33:59;;;;;;;36.30;19.40;;;;;;;-128.00;-1.00;-1.00;100934;1306;1004709;-33
2022/12/24 00:36:25;;;;;;;37.90;20.20;;;;;;;-128.00;-1.00;-1.00;100939;1306;1005127;-32
2022/12/24 00:38:50;;;;;;;28.80;13.40;;;;;;;-128.00;-1.00;-1.00;100824;1305;1004046;-32
2022/12/24 00:43:46;;;;;;;25.40;13.50;;;;;;;-128.00;-1.00;-1.00;100878;1306;1004672;-32
2022/12/24 00:46:12;;;;;;;23.60;13.50;;;;;;;-128.00;-1.00;-1.00;100835;1306;1003904;-32
2022/12/24 00:48:38;;;;;;;38.50;17.10;;;;;;;-128.00;-1.00;-1.00;100917;1306;1004331;-34
2022/12/24 00:51:04;;;;;;;25.40;11.30;;;;;;;-128.00;-1.00;-1.00;100850;1306;1005089;-36
2022/12/24 00:53:30;;;;;;;23.30;12.00;;;;;;;-128.00;-1.00;-1.00;100863;1306;1003736;-33
2022/12/24 00:55:56;;;;;;;35.30;16.30;;;;;;;-128.00;-1.00;-1.00;100837;1306;1004773;-36
2022/12/24 00:58:22;;;;;;;30.50;17.40;;;;;;;-128.00;-1.00;-1.00;100892;1306;1004354;-36
2022/12/24 01:00:47;;;;;;;31.10;16.30;;;;;;;-128.00;-1.00;-1.00;100823;1306;1004449;-36
2022/12/24 01:03:13;;;;;;;17.00;11.00;;;;;;;-128.00;-1.00;-1.00;100876;1306;1004809;-32
2022/12/24 01:05:39;;;;;;;23.10;11.70;;;;;;;-128.00;-1.00;-1.00;100821;1306;1004906;-36
2022/12/24 01:08:05;;;;;;;37.90;17.30;;;;;;;-128.00;-1.00;-1.00;100819;1306;1003858;-37
2022/12/24 01:10:30;;;;;;;33.10;17.40;;;;;;;-128.00;-1.00;-1.00;100869;1306;1004637;-36
2022/12/24 01:12:56;;;;;;;31.90;17.60;;;;;;;-128.00;-1.00;-1.00;100837;1306;1003760;-33
2022/12/24 01:15:22;;;;;;;39.90;15.20;;;;;;;-128.00;-1.00;-1.00;100855;1306;1004890;-38
2022/12/24 01:17:48;;;;;;;45.90;14.80;;;;;;;-128.00;-1.00;-1.00;100876;1306;1004405;-32
2022/12/24 01:20:15;;;;;;;26.70;13.40;;;;;;;-128.00;-1.00;-1.00;100894;1306;1003760;-35
2022/12/24 01:22:41;;;;;;;20.00;12.00;;;;;;;-128.00;-1.00;-1.00;100848;1306;1005061;-36
2022/12/24 01:25:07;;;;;;;39.00;17.80;;;;;;;-128.00;-1.00;-1.00;100857;1306;1004959;-36
2022/12/24 01:27:33;;;;;;;29.70;14.10;;;;;;;-128.00;-1.00;-1.00;100892;1306;1004720;-34
2022/12/24 01:29:59;;;;;;;34.70;18.40;;;;;;;-128.00;-1.00;-1.00;100893;1306;1004776;-33
2022/12/24 01:32:24;;;;;;;33.00;18.10;;;;;;;-128.00;-1.00;-1.00;100823;1306;1004645;-33
2022/12/24 01:34:50;;;;;;;42.40;20.00;;;;;;;-128.00;-1.00;-1.00;100864;1306;1004337;-33
2022/12/24 01:37:16;;;;;;;27.80;11.80;;;;;;;-128.00;-1.00;-1.00;100853;1306;1004612;-33
2022/12/24 01:39:42;;;;;;;37.00;19.00;;;;;;;-128.00;-1.00;-1.00;100850;1306;1005235;-36
2022/12/24 01:44:51;;;;;;;28.00;12.70;;;;;;;-128.00;-1.00;-1.00;100850;1306;1004721;-35
2022/12/24 01:47:20;;;;;;;20.10;10.70;;;;;;;-128.00;-1.00;-1.00;100819;1306;1003789;-36
2022/12/24 01:49:50;;;;;;;25.00;12.80;;;;;;;-128.00;-1.00;-1.00;100762;1306;1004305;-33
2022/12/24 01:52:19;;;;;;;20.60;11.70;;;;;;;-128.00;-1.00;-1.00;100869;1306;1004234;-32
2022/12/24 01:54:57;;;;;;;21.30;10.90;;;;;;;-128.00;-1.00;-1.00;100909;1300;1004509;-32
2022/12/24 01:57:26;;;;;;;41.00;17.60;;;;;;;-128.00;-1.00;-1.00;100842;1306;1004231;-33
2022/12/24 01:59:54;;;;;;;22.00;14.00;;;;;;;-128.00;-1.00;-1.00;100855;1306;1004943;-36
2022/12/24 02:02:21;;;;;;;19.00;11.20;;;;;;;-128.00;-1.00;-1.00;100767;1306;1004969;-33
2022/12/24 02:05:03;;;;;;;23.30;10.90;;;;;;;-128.00;-1.00;-1.00;100606;1306;1003523;-36
2022/12/24 02:07:29;;;;;;;22.10;12.10;;;;;;;-128.00;-1.00;-1.00;100842;1306;1004644;-36
2022/12/24 02:09:58;;;;;;;30.00;14.60;;;;;;;-128.00;-1.00;-1.00;100886;1306;1004652;-36
2022/12/24 02:12:25;;;;;;;21.70;12.40;;;;;;;-128.00;-1.00;-1.00;100848;1306;1005650;-33
2022/12/24 02:14:51;;;;;;;22.90;13.40;;;;;;;-128.00;-1.00;-1.00;100829;1306;1003701;-34
2022/12/24 02:17:25;;;;;;;25.90;14.10;;;;;;;-128.00;-1.00;-1.00;100841;1306;1004781;-36
2022/12/24 02:20:15;;;;;;;30.50;13.90;;;;;;;-128.00;-1.00;-1.00;100805;1300;1004263;-33
2022/12/24 02:23:04;;;;;;;31.80;13.20;;;;;;;-128.00;-1.00;-1.00;100909;1306;1004875;-36
2022/12/24 02:25:54;;;;;;;29.40;13.80;;;;;;;-128.00;-1.00;-1.00;100834;1306;1004974;-37
2022/12/24 02:28:36;;;;;;;29.80;16.60;;;;;;;-128.00;-1.00;-1.00;100866;1306;1004363;-33
2022/12/24 02:31:05;;;;;;;27.10;15.00;;;;;;;-128.00;-1.00;-1.00;100812;1306;1004925;-34
2022/12/24 02:33:37;;;;;;;27.00;15.80;;;;;;;-128.00;-1.00;-1.00;100885;1306;1004986;-36
2022/12/24 02:36:12;;;;;;;32.20;14.90;;;;;;;-128.00;-1.00;-1.00;100814;1306;1004500;-36
2022/12/24 02:38:48;;;;;;;21.60;13.60;;;;;;;-128.00;-1.00;-1.00;100880;1306;1004544;-36
2022/12/24 02:41:16;;;;;;;26.70;14.40;;;;;;;-128.00;-1.00;-1.00;100827;1300;1004540;-34
2022/12/24 02:43:44;;;;;;;25.40;12.60;;;;;;;-128.00;-1.00;-1.00;100847;1306;1004784;-37
2022/12/24 02:46:12;;;;;;;20.10;11.00;;;;;;;-128.00;-1.00;-1.00;100824;1306;1005119;-33
2022/12/24 02:48:40;;;;;;;26.10;13.40;;;;;;;-128.00;-1.00;-1.00;100873;1306;1004627;-33
2022/12/24 02:51:07;;;;;;;28.90;13.40;;;;;;;-128.00;-1.00;-1.00;100883;1306;1004899;-34
2022/12/24 02:53:33;;;;;;;25.80;14.70;;;;;;;-128.00;-1.00;-1.00;100852;1306;1004477;-34
2022/12/24 02:56:08;;;;;;;18.40;12.30;;;;;;;-128.00;-1.00;-1.00;100877;1306;1004703;-33
2022/12/24 02:58:44;;;;;;;25.90;14.30;;;;;;;-128.00;-1.00;-1.00;100815;1306;1005036;-36
2022/12/24 03:01:25;;;;;;;32.60;16.00;;;;;;;-128.00;-1.00;-1.00;100815;1300;1004263;-33
2022/12/24 03:04:09;;;;;;;28.20;14.40;;;;;;;-128.00;-1.00;-1.00;100814;1306;1003676;-36
2022/12/24 03:06:43;;;;;;;29.70;15.20;;;;;;;-128.00;-1.00;-1.00;100815;1306;1004819;-37
2022/12/24 03:09:24;;;;;;;32.60;15.90;;;;;;;-128.00;-1.00;-1.00;100796;1303;1004866;-33
2022/12/24 03:11:54;;;;;;;26.30;13.70;;;;;;;-128.00;-1.00;-1.00;100815;1306;1004476;-37
2022/12/24 03:14:20;;;;;;;33.40;16.00;;;;;;;-128.00;-1.00;-1.00;100871;1306;1004656;-33
2022/12/24 03:16:46;;;;;;;31.10;13.80;;;;;;;-128.00;-1.00;-1.00;100807;1306;1004832;-34
2022/12/24 03:19:12;;;;;;;32.80;17.60;;;;;;;-128.00;-1.00;-1.00;100885;1306;1004687;-33
2022/12/24 03:21:38;;;;;;;27.60;13.40;;;;;;;-128.00;-1.00;-1.00;100804;1306;1005025;-37
2022/12/24 03:24:04;;;;;;;44.60;18.90;;;;;;;-128.00;-1.00;-1.00;100809;1306;1004534;-36
2022/12/24 03:26:30;;;;;;;27.90;15.20;;;;;;;-128.00;-1.00;-1.00;100834;1306;1004426;-36
2022/12/24 03:28:55;;;;;;;40.90;19.20;;;;;;;-128.00;-1.00;-1.00;100855;1306;1004635;-33
2022/12/24 03:31:21;;;;;;;44.60;19.20;;;;;;;-128.00;-1.00;-1.00;100851;1306;1003889;-37
2022/12/24 03:33:47;;;;;;;35.20;16.60;;;;;;;-128.00;-1.00;-1.00;100852;1306;1004412;-37
2022/12/24 03:36:13;;;;;;;32.50;16.00;;;;;;;-128.00;-1.00;-1.00;100945;1306;1004561;-33
2022/12/24 03:38:39;;;;;;;37.30;18.00;;;;;;;-128.00;-1.00;-1.00;100835;1306;1003807;-37
2022/12/24 03:41:05;;;;;;;23.70;12.50;;;;;;;-128.00;-1.00;-1.00;100878;1306;1004650;-37
2022/12/24 03:43:30;;;;;;;39.90;17.90;;;;;;;-128.00;-1.00;-1.00;100841;1306;1004562;-33
2022/12/24 03:45:56;;;;;;;33.20;16.40;;;;;;;-128.00;-1.00;-1.00;100831;1306;1004788;-33
2022/12/24 03:48:22;;;;;;;37.90;18.90;;;;;;;-128.00;-1.00;-1.00;100848;1306;1004503;-37
2022/12/24 03:50:48;;;;;;;35.30;16.30;;;;;;;-128.00;-1.00;-1.00;100915;1306;1004886;-33
2022/12/24 03:53:13;;;;;;;39.10;17.40;;;;;;;-128.00;-1.00;-1.00;100831;1306;1005149;-33
2022/12/24 03:55:39;;;;;;;27.00;15.40;;;;;;;-128.00;-1.00;-1.00;100898;1306;1004965;-36
2022/12/24 03:58:05;;;;;;;31.20;15.20;;;;;;;-128.00;-1.00;-1.00;100822;1306;1004821;-33
2022/12/24 04:00:31;;;;;;;29.90;17.40;;;;;;;-128.00;-1.00;-1.00;100840;1306;1004934;-36
2022/12/24 04:02:56;;;;;;;30.30;14.60;;;;;;;-128.00;-1.00;-1.00;100872;1306;1004936;-36
2022/12/24 04:05:23;;;;;;;27.90;14.70;;;;;;;-128.00;-1.00;-1.00;100792;1306;1005005;-33
2022/12/24 04:07:49;;;;;;;28.70;13.60;;;;;;;-128.00;-1.00;-1.00;100870;1306;1004553;-34
2022/12/24 04:10:15;;;;;;;18.30;8.10;;;;;;;-128.00;-1.00;-1.00;100881;1306;1004827;-33
2022/12/24 04:12:41;;;;;;;27.80;15.00;;;;;;;-128.00;-1.00;-1.00;100775;1306;1004193;-33
2022/12/24 04:15:07;;;;;;;29.80;17.30;;;;;;;-128.00;-1.00;-1.00;100852;1306;1004960;-33
2022/12/24 04:17:33;;;;;;;29.50;13.60;;;;;;;-128.00;-1.00;-1.00;100856;1306;1003725;-36
2022/12/24 04:19:59;;;;;;;23.20;12.30;;;;;;;-128.00;-1.00;-1.00;100839;1306;1004839;-33
2022/12/24 04:22:25;;;;;;;21.20;10.40;;;;;;;-128.00;-1.00;-1.00;100875;1306;1004836;-36
2022/12/24 04:24:51;;;;;;;16.90;9.20;;;;;;;-128.00;-1.00;-1.00;100815;1306;1003844;-33
2022/12/24 04:27:17;;;;;;;15.90;10.30;;;;;;;-128.00;-1.00;-1.00;100851;1306;1004086;-36
2022/12/24 04:29:43;;;;;;;20.20;11.20;;;;;;;-128.00;-1.00;-1.00;100859;1306;1004713;-36
2022/12/24 04:32:09;;;;;;;22.10;11.60;;;;;;;-128.00;-1.00;-1.00;100831;1306;1004527;-33
2022/12/24 04:34:35;;;;;;;21.10;11.20;;;;;;;-128.00;-1.00;-1.00;100883;1306;1005341;-33
2022/12/24 05:14:48;;;;;;;10.30;6.90;;;;;;;5.85;100.00;98354.54;103121;1296;1004857;-31
2022/12/24 05:17:14;;;;;;;8.30;5.40;;;;;;;6.00;100.00;98336.27;104244;1301;406292;-34
2022/12/24 05:19:39;;;;;;;6.90;5.10;;;;;;;6.12;100.00;98324.70;104806;1298;22656;-34
2022/12/24 05:27:04;;;;;;;1.90;1.70;;;;;;;6.21;100.00;98308.48;104821;1300;22809;-32
2022/12/24 05:29:30;;;;;;;5.50;4.00;;;;;;;-128.00;-1.00;-1.00;101251;1303;1004298;-37
2022/12/24 05:31:55;;;;;;;4.30;3.60;;;;;;;-128.00;-1.00;-1.00;101236;1303;1004375;-36
2022/12/24 05:34:21;;;;;;;3.80;2.80;;;;;;;-128.00;-1.00;-1.00;101235;1303;1004706;-36
2022/12/24 05:36:47;;;;;;;10.00;5.60;;;;;;;-128.00;-1.00;-1.00;101134;1303;1004261;-34
2022/12/24 05:39:16;;;;;;;7.60;3.40;;;;;;;-128.00;-1.00;-1.00;101200;1303;1004999;-34
2022/12/24 05:41:42;;;;;;;8.00;4.70;;;;;;;-128.00;-1.00;-1.00;101124;1303;1005071;-36
2022/12/24 05:44:08;;;;;;;6.60;4.50;;;;;;;-128.00;-1.00;-1.00;101259;1303;1004427;-34
2022/12/24 05:46:34;;;;;;;6.50;2.70;;;;;;;-128.00;-1.00;-1.00;100910;1303;1005160;-37
2022/12/24 05:48:59;;;;;;;4.40;4.00;;;;;;;-128.00;-1.00;-1.00;101055;1303;1004549;-34
2022/12/24 05:51:25;;;;;;;12.20;5.00;;;;;;;-128.00;-1.00;-1.00;101263;1303;1004511;-34
2022/12/24 05:53:51;;;;;;;3.00;1.30;;;;;;;-128.00;-1.00;-1.00;101227;1303;1005093;-34
2022/12/24 05:56:19;;;;;;;6.60;3.90;;;;;;;-128.00;-1.00;-1.00;101116;1303;1004460;-38
2022/12/24 05:58:45;;;;;;;7.20;3.60;;;;;;;-128.00;-1.00;-1.00;101159;1303;1005308;-35
2022/12/24 06:01:12;;;;;;;2.20;1.50;;;;;;;-128.00;-1.00;-1.00;101142;1303;1005162;-35
2022/12/24 06:03:37;;;;;;;5.60;3.30;;;;;;;-128.00;-1.00;-1.00;101217;1303;1004729;-32
2022/12/24 06:06:09;;;;;;;4.80;3.90;;;;;;;-128.00;-1.00;-1.00;101246;1298;1004836;-35
2022/12/24 06:08:35;;;;;;;10.80;3.40;;;;;;;-128.00;-1.00;-1.00;101245;1303;1005017;-32
2022/12/24 06:11:02;;;;;;;10.00;4.00;;;;;;;-128.00;-1.00;-1.00;101212;1303;1004346;-33
2022/12/24 06:13:29;;;;;;;5.10;4.00;;;;;;;-128.00;-1.00;-1.00;101171;1303;1003950;-37
2022/12/24 06:15:55;;;;;;;2.80;2.20;;;;;;;-128.00;-1.00;-1.00;101282;1303;1003624;-33
2022/12/24 06:18:21;;;;;;;5.10;3.60;;;;;;;-128.00;-1.00;-1.00;101114;1303;1004949;-35
2022/12/24 06:20:51;;;;;;;2.70;2.20;;;;;;;-128.00;-1.00;-1.00;100890;1304;1005490;-32
2022/12/24 06:23:17;;;;;;;3.90;2.80;;;;;;;-128.00;-1.00;-1.00;101256;1303;1004919;-32
2022/12/24 06:25:43;;;;;;;3.80;2.90;;;;;;;-128.00;-1.00;-1.00;101135;1304;1005254;-32
2022/12/24 06:28:08;;;;;;;8.60;3.10;;;;;;;-128.00;-1.00;-1.00;101301;1304;1004514;-36
2022/12/24 06:30:34;;;;;;;2.60;1.60;;;;;;;-128.00;-1.00;-1.00;101222;1303;1005192;-36
2022/12/24 06:33:00;;;;;;;2.70;2.10;;;;;;;-128.00;-1.00;-1.00;101100;1303;1004511;-36
2022/12/24 06:35:26;;;;;;;3.20;2.60;;;;;;;-128.00;-1.00;-1.00;101186;1303;1004185;-37
2022/12/24 06:37:52;;;;;;;1.90;1.10;;;;;;;-128.00;-1.00;-1.00;101279;1303;1004581;-34
2022/12/24 06:40:17;;;;;;;4.70;2.20;;;;;;;-128.00;-1.00;-1.00;100979;1304;1003802;-37
2022/12/24 06:42:43;;;;;;;1.60;1.10;;;;;;;-128.00;-1.00;-1.00;101127;1303;1004402;-34
2022/12/24 06:45:10;;;;;;;4.60;2.90;;;;;;;-128.00;-1.00;-1.00;101245;1303;1004397;-35
2022/12/24 06:47:35;;;;;;;2.00;1.30;;;;;;;-128.00;-1.00;-1.00;101124;1303;1004042;-37
2022/12/24 06:50:01;;;;;;;3.00;2.50;;;;;;;-128.00;-1.00;-1.00;101097;1303;1005235;-35
2022/12/24 06:52:27;;;;;;;3.70;1.90;;;;;;;-128.00;-1.00;-1.00;101262;1303;1004261;-34
2022/12/24 06:54:53;;;;;;;1.60;1.40;;;;;;;-128.00;-1.00;-1.00;101239;1303;1004441;-37
2022/12/24 06:57:19;;;;;;;2.30;1.50;;;;;;;-128.00;-1.00;-1.00;101144;1303;1004944;-36
2022/12/24 06:59:44;;;;;;;4.70;1.90;;;;;;;-128.00;-1.00;-1.00;101350;1303;1004790;-33
2022/12/24 07:02:10;;;;;;;1.60;1.40;;;;;;;-128.00;-1.00;-1.00;101220;1303;1005124;-35
2022/12/24 07:04:36;;;;;;;1.90;1.20;;;;;;;-128.00;-1.00;-1.00;101252;1303;1005026;-36
2022/12/24 07:07:02;;;;;;;6.60;2.70;;;;;;;-128.00;-1.00;-1.00;101122;1303;1004934;-33
2022/12/24 07:09:28;;;;;;;1.70;1.00;;;;;;;-128.00;-1.00;-1.00;101144;1303;1004708;-35
2022/12/24 07:11:54;;;;;;;9.30;6.40;;;;;;;-128.00;-1.00;-1.00;101258;1303;1004535;-35
2022/12/24 07:14:19;;;;;;;2.50;1.60;;;;;;;-128.00;-1.00;-1.00;101136;1303;1004687;-37
2022/12/24 07:16:45;;;;;;;3.40;2.60;;;;;;;-128.00;-1.00;-1.00;101109;1303;1004516;-33
2022/12/24 07:19:12;;;;;;;4.10;2.80;;;;;;;-128.00;-1.00;-1.00;101215;1303;1004364;-33
2022/12/24 07:21:38;;;;;;;5.00;2.50;;;;;;;-128.00;-1.00;-1.00;101226;1303;1004034;-35
2022/12/24 07:24:04;;;;;;;2.60;2.00;;;;;;;-128.00;-1.00;-1.00;101155;1303;1004773;-33
2022/12/24 07:26:30;;;;;;;1.60;1.30;;;;;;;-128.00;-1.00;-1.00;101129;1303;1005142;-34
2022/12/24 07:28:55;;;;;;;3.50;1.80;;;;;;;-128.00;-1.00;-1.00;101199;1303;1004487;-33
2022/12/24 07:31:21;;;;;;;2.40;1.40;;;;;;;-128.00;-1.00;-1.00;101324;1303;1003950;-35
2022/12/24 07:33:47;;;;;;;2.40;1.30;;;;;;;-128.00;-1.00;-1.00;101416;1303;1004647;-33
2022/12/24 07:36:20;;;;;;;6.70;1.20;;;;;;;-128.00;-1.00;-1.00;101154;1303;1004631;-35
2022/12/24 07:38:46;;;;;;;3.70;2.30;;;;;;;-128.00;-1.00;-1.00;101043;1303;1004343;-41
2022/12/24 07:41:12;;;;;;;4.20;2.40;;;;;;;-128.00;-1.00;-1.00;101217;1303;1003938;-35
2022/12/24 07:43:38;;;;;;;3.00;2.20;;;;;;;-128.00;-1.00;-1.00;101247;1303;1004995;-33
2022/12/24 07:46:04;;;;;;;3.50;1.70;;;;;;;-128.00;-1.00;-1.00;101034;1303;1004689;-36
2022/12/24 07:48:30;;;;;;;2.90;2.00;;;;;;;-128.00;-1.00;-1.00;101059;1303;1004491;-36
2022/12/24 07:50:56;;;;;;;4.80;2.00;;;;;;;-128.00;-1.00;-1.00;101224;1303;1005178;-34
2022/12/24 07:53:21;;;;;;;2.70;1.10;;;;;;;-128.00;-1.00;-1.00;101158;1304;1004546;-36
2022/12/24 07:55:47;;;;;;;1.20;0.80;;;;;;;-128.00;-1.00;-1.00;101233;1303;1004169;-36
2022/12/24 07:58:13;;;;;;;12.00;5.00;;;;;;;-128.00;-1.00;-1.00;101255;1303;1005260;-33
2022/12/24 08:00:39;;;;;;;20.00;10.30;;;;;;;-128.00;-1.00;-1.00;101108;1303;1004425;-33
2022/12/24 08:03:05;;;;;;;3.20;2.60;;;;;;;-128.00;-1.00;-1.00;101362;1303;1004318;-33
2022/12/24 08:05:37;;;;;;;4.40;3.50;;;;;;;-128.00;-1.00;-1.00;101156;1303;1003698;-33
2022/12/24 08:08:02;;;;;;;3.40;2.20;;;;;;;-128.00;-1.00;-1.00;101184;1303;1003692;-33
2022/12/24 08:10:28;;;;;;;4.00;2.30;;;;;;;-128.00;-1.00;-1.00;101291;1303;1005252;-36
2022/12/24 08:12:54;;;;;;;3.50;2.70;;;;;;;-128.00;-1.00;-1.00;101173;1303;1003825;-35
2022/12/24 08:15:20;;;;;;;9.20;5.40;;;;;;;-128.00;-1.00;-1.00;101194;1303;1003744;-33
2022/12/24 08:17:46;;;;;;;10.20;7.50;;;;;;;-128.00;-1.00;-1.00;101130;1303;1004545;-33
2022/12/24 08:20:14;;;;;;;1.90;1.70;;;;;;;-128.00;-1.00;-1.00;101280;1303;1003810;-35
2022/12/24 08:22:40;;;;;;;5.00;3.50;;;;;;;-128.00;-1.00;-1.00;101223;1303;1004414;-34
2022/12/24 08:25:06;;;;;;;2.00;0.60;;;;;;;-128.00;-1.00;-1.00;101204;1303;1004689;-35
2022/12/24 08:27:32;;;;;;;1.90;1.60;;;;;;;-128.00;-1.00;-1.00;101337;1303;1004225;-36
2022/12/24 08:29:58;;;;;;;1.50;0.80;;;;;;;-128.00;-1.00;-1.00;101149;1303;1004206;-32
2022/12/24 08:32:24;;;;;;;13.40;4.50;;;;;;;-128.00;-1.00;-1.00;99083;1303;1003816;-35
2022/12/24 08:34:49;;;;;;;3.50;2.50;;;;;;;-128.00;-1.00;-1.00;101172;1303;1004737;-34
2022/12/24 08:37:15;;;;;;;11.40;5.90;;;;;;;-128.00;-1.00;-1.00;100414;1303;1003499;-36
2022/12/24 08:39:41;;;;;;;4.70;2.00;;;;;;;-128.00;-1.00;-1.00;101230;1303;1004766;-34
2022/12/24 08:42:08;;;;;;;2.20;1.10;;;;;;;-128.00;-1.00;-1.00;100959;1303;1004367;-32
2022/12/24 08:44:34;;;;;;;3.40;2.80;;;;;;;-128.00;-1.00;-1.00;94645;1303;1005176;-32
2022/12/24 08:47:00;;;;;;;1.20;0.70;;;;;;;-128.00;-1.00;-1.00;92564;1303;2002829;-33
2022/12/24 08:49:25;;;;;;;9.20;4.00;;;;;;;-128.00;-1.00;-1.00;78133;1304;2002737;-34
2022/12/24 08:51:51;;;;;;;4.50;3.20;;;;;;;-128.00;-1.00;-1.00;78099;1303;2004139;-34
2022/12/24 08:54:17;;;;;;;5.00;2.70;;;;;;;-128.00;-1.00;-1.00;85260;1303;2002797;-35
2022/12/24 08:56:43;;;;;;;9.80;4.40;;;;;;;-128.00;-1.00;-1.00;83819;1303;2002028;-35
2022/12/24 08:59:11;;;;;;;18.50;9.10;;;;;;;-128.00;-1.00;-1.00;82314;1304;2004527;-35
2022/12/24 09:01:37;;;;;;;13.90;7.80;;;;;;;-128.00;-1.00;-1.00;88221;1303;2004816;-35
2022/12/24 09:04:04;;;;;;;8.30;5.10;;;;;;;-128.00;-1.00;-1.00;89781;1303;1004897;-32
2022/12/24 09:06:31;;;;;;;5.70;3.50;;;;;;;-128.00;-1.00;-1.00;94626;1303;2002623;-35
2022/12/24 09:08:56;;;;;;;15.80;9.50;;;;;;;-128.00;-1.00;-1.00;97560;1303;2003939;-34
2022/12/24 09:11:22;;;;;;;6.30;4.30;;;;;;;-128.00;-1.00;-1.00;98017;1303;1003860;-38
2022/12/24 09:13:48;;;;;;;22.00;10.80;;;;;;;-128.00;-1.00;-1.00;101113;1303;1003572;-33
2022/12/24 09:16:14;;;;;;;15.50;8.50;;;;;;;-128.00;-1.00;-1.00;101347;1303;1004731;-33
2022/12/24 09:18:40;;;;;;;9.20;6.30;;;;;;;-128.00;-1.00;-1.00;100860;1303;1004440;-33
2022/12/24 09:21:08;;;;;;;15.80;7.80;;;;;;;-128.00;-1.00;-1.00;101294;1303;1004489;-33
2022/12/24 09:23:37;;;;;;;7.70;4.40;;;;;;;-128.00;-1.00;-1.00;101143;1303;1005325;-35
2022/12/24 09:26:05;;;;;;;11.80;8.40;;;;;;;-128.00;-1.00;-1.00;100972;1297;1003781;-36
2022/12/24 09:28:31;;;;;;;8.90;6.30;;;;;;;-128.00;-1.00;-1.00;100466;1303;1004333;-33
2022/12/24 09:30:58;;;;;;;25.40;10.20;;;;;;;-128.00;-1.00;-1.00;96897;1303;1005007;-33
2022/12/24 09:33:24;;;;;;;21.20;10.30;;;;;;;-128.00;-1.00;-1.00;99147;1303;1004311;-35
2022/12/24 09:35:51;;;;;;;29.00;9.60;;;;;;;-128.00;-1.00;-1.00;101169;1303;1004239;-34
2022/12/24 09:38:18;;;;;;;13.00;5.20;;;;;;;-128.00;-1.00;-1.00;99923;1303;1004539;-35
2022/12/24 09:40:44;;;;;;;19.70;8.20;;;;;;;-128.00;-1.00;-1.00;94756;1303;1004492;-36
2022/12/24 09:43:22;;;;;;;21.50;5.50;;;;;;;-128.00;-1.00;-1.00;94126;1303;2006146;-32
2022/12/24 09:46:20;;;;;;;11.00;7.40;;;;;;;-128.00;-1.00;-1.00;88960;1303;1005267;-36
2022/12/24 09:48:48;;;;;;;20.90;10.10;;;;;;;-128.00;-1.00;-1.00;91035;1303;2003708;-33
2022/12/24 09:51:26;;;;;;;34.40;14.80;;;;;;;-128.00;-1.00;-1.00;100582;1296;1003299;-33
2022/12/24 09:53:59;;;;;;;13.00;6.10;;;;;;;-128.00;-1.00;-1.00;98343;1303;1004651;-33
2022/12/24 09:56:26;;;;;;;13.20;9.10;;;;;;;-128.00;-1.00;-1.00;100452;1303;1004529;-36
2022/12/24 09:59:00;;;;;;;19.60;10.80;;;;;;;-128.00;-1.00;-1.00;93184;1303;2003584;-33
2022/12/24 10:01:27;;;;;;;9.10;6.90;;;;;;;-128.00;-1.00;-1.00;100445;1303;2002567;-33
2022/12/24 10:03:53;;;;;;;6.00;4.40;;;;;;;-128.00;-1.00;-1.00;101158;1303;1004895;-37
2022/12/24 10:06:23;;;;;;;4.10;3.60;;;;;;;-128.00;-1.00;-1.00;101249;1303;1004499;-36
2022/12/24 10:09:12;;;;;;;4.50;3.30;;;;;;;-128.00;-1.00;-1.00;99695;1303;2003973;-36
2022/12/24 10:12:08;;;;;;;4.90;3.80;;;;;;;-128.00;-1.00;-1.00;98225;1303;1003560;-37
2022/12/24 10:15:05;;;;;;;5.60;3.90;;;;;;;-128.00;-1.00;-1.00;100947;1303;1005465;-38
2022/12/24 10:17:48;;;;;;;7.20;5.20;;;;;;;-128.00;-1.00;-1.00;101232;1303;1005228;-32
2022/12/24 10:20:30;;;;;;;8.40;3.50;;;;;;;-128.00;-1.00;-1.00;101212;1303;1005160;-33
2022/12/24 10:23:15;;;;;;;3.30;2.80;;;;;;;-128.00;-1.00;-1.00;101205;1303;1003888;-33
2022/12/24 10:25:59;;;;;;;5.50;3.30;;;;;;;-128.00;-1.00;-1.00;101187;1303;1004579;-32
2022/12/24 10:28:33;;;;;;;5.50;3.20;;;;;;;-128.00;-1.00;-1.00;101168;1281;1003734;-36
2022/12/24 10:31:02;;;;;;;12.60;6.70;;;;;;;-128.00;-1.00;-1.00;99766;1303;1005094;-32
2022/12/24 10:33:31;;;;;;;10.10;5.10;;;;;;;-128.00;-1.00;-1.00;100254;1303;1003914;-36
2022/12/24 10:35:57;;;;;;;6.20;4.00;;;;;;;-128.00;-1.00;-1.00;101218;1303;1003898;-33
2022/12/24 10:38:23;;;;;;;12.40;4.30;;;;;;;-128.00;-1.00;-1.00;101269;1303;1004423;-33
2022/12/24 10:40:49;;;;;;;22.00;8.60;;;;;;;-128.00;-1.00;-1.00;100457;1303;1004882;-36
2022/12/24 10:43:18;;;;;;;19.00;3.30;;;;;;;-128.00;-1.00;-1.00;101256;1303;1004122;-36
2022/12/24 10:45:50;;;;;;;15.70;5.30;;;;;;;-128.00;-1.00;-1.00;101161;1303;1004046;-33
2022/12/24 10:48:23;;;;;;;5.60;4.00;;;;;;;-128.00;-1.00;-1.00;100975;1303;1004038;-36
2022/12/24 10:50:52;;;;;;;6.90;4.70;;;;;;;-128.00;-1.00;-1.00;99586;1301;1004330;-32
2022/12/24 10:53:22;;;;;;;10.20;5.50;;;;;;;-128.00;-1.00;-1.00;101330;1303;1003108;-33
2022/12/24 10:55:48;;;;;;;5.10;3.50;;;;;;;-128.00;-1.00;-1.00;99746;1303;2007424;-36
2022/12/24 10:58:18;;;;;;;47.50;13.50;;;;;;;-128.00;-1.00;-1.00;101146;1303;1005402;-36
2022/12/24 11:00:51;;;;;;;11.50;7.00;;;;;;;-128.00;-1.00;-1.00;101190;1304;1004626;-36
2022/12/24 11:03:23;;;;;;;26.80;6.80;;;;;;;-128.00;-1.00;-1.00;101077;1303;1004240;-36
2022/12/24 11:46:30;;;;;;;5.30;4.20;;;;;;;6.97;100.00;98805.27;104234;1297;557343;-36
2022/12/24 11:49:15;;;;;;;6.20;4.70;;;;;;;6.87;100.00;98808.89;104051;1297;433949;-36
2022/12/24 11:52:03;;;;;;;11.20;4.90;;;;;;;6.78;100.00;98820.81;104201;1305;22569;-30
2022/12/24 11:54:30;;;;;;;6.90;4.60;;;;;;;6.84;100.00;98823.11;104461;1304;24538;-31
2022/12/24 11:56:56;;;;;;;9.70;5.40;;;;;;;6.72;100.00;98829.04;104530;1291;23156;-31
2022/12/24 11:59:36;;;;;;;2.80;2.00;;;;;;;6.67;100.00;98836.60;104473;1293;22804;-31
2022/12/24 12:02:24;;;;;;;7.90;5.20;;;;;;;6.72;100.00;98842.87;104480;1294;23295;-36
2022/12/24 12:04:56;;;;;;;8.00;5.70;;;;;;;6.85;100.00;98839.13;104566;1301;24314;-35
2022/12/24 12:07:29;;;;;;;12.20;3.50;;;;;;;6.90;100.00;98840.55;104559;1293;23200;-30
2022/12/24 12:10:10;;;;;;;6.10;3.60;;;;;;;6.99;100.00;98838.56;104449;1294;22807;-31
2022/12/24 12:12:45;;;;;;;9.20;5.80;;;;;;;6.87;100.00;98843.06;104461;1301;22803;-35
2022/12/24 12:15:16;;;;;;;5.10;3.50;;;;;;;6.79;100.00;98861.00;104490;1305;24379;-35
2022/12/24 12:17:56;;;;;;;6.30;4.80;;;;;;;6.61;100.00;98876.08;104580;1294;23176;-32
2022/12/24 12:20:24;;;;;;;5.50;2.60;;;;;;;6.53;100.00;98890.89;104485;1294;22579;-33
2022/12/24 12:23:05;;;;;;;5.00;2.10;;;;;;;6.53;100.00;98902.55;104559;1294;22562;-37
2022/12/24 12:25:47;;;;;;;16.10;5.40;;;;;;;6.51;100.00;98907.80;104561;1290;22680;-34
2022/12/24 12:28:26;;;;;;;3.40;2.30;;;;;;;6.40;100.00;98918.40;104442;1294;22793;-33
2022/12/24 12:31:15;;;;;;;4.10;2.80;;;;;;;6.30;100.00;98924.14;104477;1292;23029;-37
2022/12/24 12:33:58;;;;;;;7.60;2.90;;;;;;;6.16;100.00;98940.06;104442;1294;22565;-33
2022/12/24 12:36:38;;;;;;;7.10;4.40;;;;;;;6.28;100.00;98947.73;104533;1305;23040;-37
2022/12/24 12:39:05;;;;;;;3.40;2.60;;;;;;;6.23;100.00;98956.11;104504;1291;22590;-37
2022/12/24 12:41:54;;;;;;;4.80;3.10;;;;;;;6.43;100.00;98963.34;104569;1294;22662;-33
2022/12/24 12:44:37;;;;;;;3.20;2.50;;;;;;;6.42;100.00;98966.81;104493;1294;22833;-37
2022/12/24 12:47:20;;;;;;;6.50;4.80;;;;;;;6.45;100.00;98969.52;104399;1294;22610;-33
2022/12/24 12:50:11;;;;;;;9.40;4.50;;;;;;;6.40;100.00;98974.36;104549;1294;23170;-33